Time;durP1;ratioP1;P1;durP2;ratioP2;P2;SDS_P1;SDS_P2;PMS_P1;PMS_P2;Temp;Humidity;BMP_temperature;BMP_pressure;BME280_temperature;BME280_humidity;BME280_pressure;Samples;Min_cycle;Max_cycle;Signal;HPM_P1;HPM_P2
2023/09/22 00:00:18;;;;;;;2.95;1.67;;;;;;;21.36;83.61;98174.88;5112774;28;20521;-58
2023/09/22 00:02:44;;;;;;;1.45;1.35;;;;;;;21.38;84.50;98172.91;5112607;28;20286;-58
2023/09/22 00:05:13;;;;;;;2.45;1.42;;;;;;;21.57;85.41;98191.63;5112628;28;20308;-58
2023/09/22 00:07:40;;;;;;;5.47;1.73;;;;;;;21.55;86.34;98216.50;5112566;28;20187;-58
2023/09/22 00:10:06;;;;;;;2.88;1.42;;;;;;;21.50;86.62;98218.88;5112556;28;20633;-57
2023/09/22 00:12:32;;;;;;;1.90;1.50;;;;;;;21.35;85.96;98203.03;5112257;28;20226;-58
2023/09/22 00:14:58;;;;;;;3.00;1.60;;;;;;;21.23;85.78;98185.19;5112782;28;20521;-57
2023/09/22 00:17:24;;;;;;;1.92;1.25;;;;;;;21.33;85.01;98217.34;5112424;28;20190;-57
2023/09/22 00:19:50;;;;;;;2.47;1.42;;;;;;;21.33;84.85;98212.09;5112467;28;20242;-57
2023/09/22 00:22:15;;;;;;;3.42;1.38;;;;;;;21.30;84.37;98192.22;5112442;28;20633;-57
2023/09/22 00:24:41;;;;;;;3.25;1.70;;;;;;;21.27;85.42;98191.75;5112225;28;20253;-57
2023/09/22 00:27:06;;;;;;;2.53;1.48;;;;;;;21.36;86.41;98211.72;5112058;28;20240;-57
2023/09/22 00:29:32;;;;;;;1.63;1.38;;;;;;;21.42;86.11;98216.28;5112253;28;20171;-57
2023/09/22 00:31:57;;;;;;;2.53;1.55;;;;;;;21.02;87.52;98182.38;5111839;28;20225;-57
2023/09/22 00:34:23;;;;;;;1.70;1.60;;;;;;;21.01;88.53;98191.28;5112101;28;20171;-57
2023/09/22 00:36:52;;;;;;;2.47;1.38;;;;;;;21.11;89.06;98207.66;5112050;28;20637;-57
2023/09/22 00:39:18;;;;;;;3.25;2.03;;;;;;;20.88;87.94;98193.63;5111875;28;20240;-57
2023/09/22 00:41:43;;;;;;;2.92;1.65;;;;;;;20.88;87.98;98191.00;5111681;28;20175;-57
2023/09/22 00:44:08;;;;;;;2.35;1.70;;;;;;;20.79;86.94;98192.03;5111818;28;20201;-58
2023/09/22 00:46:34;;;;;;;4.38;1.67;;;;;;;20.87;87.41;98211.22;5111630;28;20626;-57
2023/09/22 00:49:00;;;;;;;4.10;1.80;;;;;;;20.80;89.27;98191.06;5111958;28;20171;-57
2023/09/22 00:51:26;;;;;;;2.78;2.13;;;;;;;20.89;89.92;98221.59;5111815;28;20171;-57
2023/09/22 00:53:52;;;;;;;3.50;1.70;;;;;;;20.65;89.98;98198.88;5111795;28;20190;-57
2023/09/22 00:56:20;;;;;;;6.05;1.60;;;;;;;20.62;90.16;98195.75;5111727;28;20187;-57
2023/09/22 00:58:47;;;;;;;2.67;1.40;;;;;;;20.76;91.54;98227.38;5111741;28;20271;-57
2023/09/22 01:01:13;;;;;;;4.47;1.42;;;;;;;20.69;90.67;98213.31;5111893;28;20209;-57
2023/09/22 01:03:38;;;;;;;2.13;1.50;;;;;;;20.64;90.96;98226.16;5111477;28;20199;-57
2023/09/22 01:06:09;;;;;;;4.32;1.60;;;;;;;20.38;91.38;98185.38;5111548;28;20549;-57
2023/09/22 01:08:34;;;;;;;2.55;1.50;;;;;;;20.56;90.30;98202.53;5111506;28;20201;-57
2023/09/22 01:11:01;;;;;;;4.45;1.73;;;;;;;20.57;91.20;98211.25;5111470;28;20179;-57
2023/09/22 01:13:27;;;;;;;2.97;1.80;;;;;;;20.53;89.76;98202.91;5111024;28;20201;-57
2023/09/22 01:15:52;;;;;;;6.03;1.75;;;;;;;20.28;90.54;98172.44;5111082;28;20175;-57
2023/09/22 01:18:18;;;;;;;3.70;1.88;;;;;;;20.42;91.33;98178.78;5111088;28;20281;-57
2023/09/22 01:20:44;;;;;;;3.78;1.70;;;;;;;20.32;90.97;98173.75;5111609;28;20207;-57
2023/09/22 01:23:12;;;;;;;2.30;1.85;;;;;;;20.28;92.99;98180.31;5111187;28;20252;-57
2023/09/22 01:25:41;;;;;;;2.13;1.50;;;;;;;20.32;93.10;98179.00;5111355;28;20175;-57
2023/09/22 01:28:08;;;;;;;2.40;1.23;;;;;;;20.31;93.47;98197.56;5111275;28;20178;-57
2023/09/22 01:30:35;;;;;;;2.05;1.52;;;;;;;20.35;92.86;98202.28;5111323;28;20273;-57
2023/09/22 01:33:04;;;;;;;2.03;1.38;;;;;;;20.14;93.22;98172.34;5111248;28;20289;-57
2023/09/22 01:35:33;;;;;;;2.28;1.40;;;;;;;20.41;92.48;98216.56;5111146;28;20183;-57
2023/09/22 01:38:07;;;;;;;3.35;1.75;;;;;;;20.33;89.48;98219.25;5110485;28;20171;-57
2023/09/22 01:40:32;;;;;;;5.97;1.98;;;;;;;20.26;90.83;98207.75;5111088;28;20285;-57
2023/09/22 01:42:58;;;;;;;6.13;1.63;;;;;;;20.25;91.28;98214.00;5110905;28;20198;-57
2023/09/22 01:45:23;;;;;;;5.38;1.88;;;;;;;20.31;90.89;98221.22;5111077;28;20185;-57
2023/09/22 01:47:48;;;;;;;2.30;1.50;;;;;;;20.27;90.57;98212.03;5111047;28;20182;-57
2023/09/22 01:50:15;;;;;;;4.70;2.33;;;;;;;20.05;91.36;98207.50;5110938;28;20615;-57
2023/09/22 01:52:40;;;;;;;4.18;1.77;;;;;;;20.12;90.93;98255.75;5110434;28;20186;-57
2023/09/22 01:55:06;;;;;;;3.53;2.33;;;;;;;19.96;91.63;98232.13;5111258;28;20310;-57
2023/09/22 01:57:32;;;;;;;5.03;1.98;;;;;;;19.89;90.49;98218.88;5067843;28;20180;-57
2023/09/22 01:59:58;;;;;;;3.55;2.22;;;;;;;20.05;88.99;98254.78;5067939;28;20184;-57
2023/09/22 02:02:23;;;;;;;5.60;2.05;;;;;;;19.90;88.67;98223.13;5067922;28;20276;-57
2023/09/22 02:04:49;;;;;;;3.03;1.95;;;;;;;20.12;89.60;98256.56;5067829;28;20203;-57
2023/09/22 02:07:14;;;;;;;3.67;2.15;;;;;;;20.13;91.00;98237.22;5067918;28;20291;-57
2023/09/22 02:09:39;;;;;;;5.10;1.90;;;;;;;20.17;92.00;98241.13;5067865;28;20576;-57
2023/09/22 02:12:05;;;;;;;4.22;1.98;;;;;;;20.17;92.89;98232.44;5067977;28;20630;-57
2023/09/22 02:14:30;;;;;;;4.07;2.35;;;;;;;20.00;92.65;98207.16;5067889;28;20192;-57
2023/09/22 02:16:58;;;;;;;3.38;1.90;;;;;;;20.24;92.08;98250.00;5068023;28;20678;-57
2023/09/22 02:19:24;;;;;;;4.88;1.88;;;;;;;19.98;92.21;98214.38;5067787;28;20212;-57
2023/09/22 02:21:50;;;;;;;4.45;2.15;;;;;;;20.09;92.10;98240.31;5067782;28;20207;-57
2023/09/22 02:24:16;;;;;;;5.30;2.10;;;;;;;20.08;90.54;98250.03;5067522;28;20220;-57
2023/09/22 02:26:41;;;;;;;5.63;2.38;;;;;;;20.05;89.89;98234.56;5067692;28;20176;-57
2023/09/22 02:29:07;;;;;;;3.92;1.80;;;;;;;19.98;89.49;98238.00;5099501;28;20581;-57
2023/09/22 02:31:32;;;;;;;2.58;2.22;;;;;;;19.94;89.34;98249.88;5110677;28;20172;-57
2023/09/22 02:33:57;;;;;;;9.27;2.45;;;;;;;20.01;89.11;98250.84;5110627;28;20666;-57
2023/09/22 02:36:23;;;;;;;4.82;2.05;;;;;;;20.05;88.04;98260.03;5067414;28;20176;-57
2023/09/22 02:38:48;;;;;;;10.02;2.03;;;;;;;19.93;88.33;98258.75;5067813;28;20245;-57
2023/09/22 02:41:14;;;;;;;6.72;2.00;;;;;;;19.97;88.32;98257.41;5067508;28;20189;-57
2023/09/22 02:43:39;;;;;;;7.85;2.20;;;;;;;19.66;87.85;98215.28;5067449;28;20208;-57
2023/09/22 02:46:05;;;;;;;7.22;2.20;;;;;;;19.83;87.51;98240.53;5067480;28;20233;-57
2023/09/22 02:48:31;;;;;;;9.88;2.25;;;;;;;19.91;87.37;98239.69;5067464;28;20281;-58
2023/09/22 02:50:56;;;;;;;6.00;2.40;;;;;;;19.87;87.88;98228.69;5068344;28;20724;-58
2023/09/22 02:53:21;;;;;;;6.32;2.40;;;;;;;20.00;87.83;98238.69;5071003;28;20273;-57
2023/09/22 02:55:47;;;;;;;4.18;2.30;;;;;;;19.87;89.81;98220.00;5071060;28;20181;-58
2023/09/22 02:58:12;;;;;;;9.57;2.33;;;;;;;19.63;91.90;98212.97;5070929;28;20185;-58
2023/09/22 03:00:44;;;;;;;3.75;2.05;;;;;;;19.62;92.79;98202.63;5070816;28;20188;-58
2023/09/22 03:03:12;;;;;;;5.00;2.33;;;;;;;19.81;93.26;98236.44;5070750;28;20250;-58
2023/09/22 03:05:38;;;;;;;9.55;2.13;;;;;;;19.61;93.30;98198.38;5070750;28;20188;-58
2023/09/22 03:08:04;;;;;;;4.45;2.13;;;;;;;19.89;93.58;98232.00;5070749;28;20180;-58
2023/09/22 03:10:32;;;;;;;3.45;2.28;;;;;;;19.76;93.22;98213.28;5070624;28;20291;-58
2023/09/22 03:12:58;;;;;;;7.95;2.95;;;;;;;19.67;93.51;98192.47;5073420;28;20203;-58
2023/09/22 03:15:23;;;;;;;8.35;2.30;;;;;;;19.69;94.20;98193.94;5090759;28;20327;-57
2023/09/22 03:17:49;;;;;;;4.40;1.98;;;;;;;19.50;94.56;98169.84;5090776;28;20219;-57
2023/09/22 03:20:16;;;;;;;6.82;2.25;;;;;;;19.43;93.91;98164.47;5090719;28;20566;-57
2023/09/22 03:22:42;;;;;;;6.22;2.47;;;;;;;19.48;92.73;98174.47;5109188;28;20205;-57
2023/09/22 03:25:09;;;;;;;7.20;2.58;;;;;;;19.64;94.30;98187.56;5113458;28;20622;-57
2023/09/22 03:27:35;;;;;;;9.23;2.67;;;;;;;19.51;94.93;98156.56;5113506;28;20172;-57
2023/09/22 03:30:06;;;;;;;5.28;2.40;;;;;;;19.59;93.35;98179.38;5113397;28;20249;-57
2023/09/22 03:32:32;;;;;;;5.45;2.30;;;;;;;19.60;93.95;98173.97;5113343;28;20191;-57
2023/09/22 03:34:57;;;;;;;3.92;2.28;;;;;;;19.66;93.69;98193.47;5113298;28;20172;-58
2023/09/22 03:37:27;;;;;;;3.63;2.20;;;;;;;19.68;93.74;98173.94;5113575;28;20218;-56
2023/09/22 03:39:54;;;;;;;9.13;2.83;;;;;;;19.59;90.79;98158.38;5113194;28;20206;-57
2023/09/22 03:42:19;;;;;;;4.65;2.10;;;;;;;19.75;91.85;98182.78;5113205;28;20175;-57
2023/09/22 03:44:45;;;;;;;3.58;2.20;;;;;;;19.86;93.25;98192.91;5112989;28;20256;-57
2023/09/22 03:47:10;;;;;;;5.35;2.20;;;;;;;19.78;91.51;98169.31;5112895;28;20697;-57
2023/09/22 03:49:35;;;;;;;5.30;2.25;;;;;;;19.59;91.79;98153.91;5113091;28;20661;-57
2023/09/22 03:52:01;;;;;;;4.88;2.53;;;;;;;19.86;93.14;98194.72;5112858;28;20261;-57
2023/09/22 03:54:27;;;;;;;8.43;2.45;;;;;;;19.78;94.90;98192.13;5113018;28;20630;-57
2023/09/22 03:56:52;;;;;;;6.80;2.38;;;;;;;19.72;95.95;98184.91;5112919;28;20641;-57
2023/09/22 03:59:18;;;;;;;5.28;2.22;;;;;;;19.81;95.72;98204.94;5112811;28;20198;-57
2023/09/22 04:01:44;;;;;;;6.20;2.50;;;;;;;19.69;95.33;98185.25;5112296;28;20175;-57
2023/09/22 04:04:10;;;;;;;6.63;2.58;;;;;;;19.48;94.10;98184.94;5112555;28;20272;-58
2023/09/22 04:06:35;;;;;;;5.13;2.50;;;;;;;19.62;92.57;98200.00;5112663;28;20179;-57
2023/09/22 04:09:07;;;;;;;4.97;2.50;;;;;;;19.70;93.46;98224.44;5069223;28;20322;-57
2023/09/22 04:11:34;;;;;;;5.85;2.80;;;;;;;19.78;93.29;98234.13;5069463;28;20723;-57
2023/09/22 04:14:00;;;;;;;6.32;2.47;;;;;;;19.60;92.42;98208.09;5069154;28;20643;-57
2023/09/22 04:16:25;;;;;;;7.65;2.20;;;;;;;19.85;91.34;98237.72;5069306;28;20187;-57
2023/09/22 04:18:54;;;;;;;4.05;2.67;;;;;;;19.65;92.41;98204.94;5069359;28;20536;-57
2023/09/22 04:21:21;;;;;;;6.50;2.53;;;;;;;19.74;93.92;98220.53;5069231;28;20184;-57
2023/09/22 04:23:51;;;;;;;5.00;2.45;;;;;;;19.84;93.79;98231.66;5069139;28;20213;-57
2023/09/22 04:26:16;;;;;;;7.47;3.13;;;;;;;19.69;94.14;98211.53;5069171;28;20180;-57
2023/09/22 04:28:43;;;;;;;8.30;2.47;;;;;;;19.78;93.51;98213.13;5069009;28;20195;-57
2023/09/22 04:31:12;;;;;;;7.32;2.70;;;;;;;19.90;92.19;98212.63;5069057;28;20180;-57
2023/09/22 04:33:38;;;;;;;11.82;2.58;;;;;;;19.97;91.97;98215.38;5068935;28;20659;-57
2023/09/22 04:36:03;;;;;;;7.32;2.88;;;;;;;19.92;90.72;98217.69;5068918;28;20219;-57
2023/09/22 04:38:29;;;;;;;5.50;2.92;;;;;;;20.04;90.89;98234.75;5068864;28;20610;-57
2023/09/22 04:40:57;;;;;;;7.22;2.50;;;;;;;20.13;89.52;98252.97;5106628;28;20187;-57
2023/09/22 04:43:23;;;;;;;7.50;2.75;;;;;;;20.15;89.57;98251.00;5111937;28;20199;-58
2023/09/22 04:45:49;;;;;;;5.05;2.95;;;;;;;20.02;90.82;98229.66;5111851;28;20210;-57
2023/09/22 04:48:16;;;;;;;9.70;3.38;;;;;;;20.19;88.74;98246.22;5111869;28;20175;-57
2023/09/22 04:50:42;;;;;;;5.70;2.85;;;;;;;20.17;88.97;98242.94;5111972;28;20179;-57
2023/09/22 04:53:08;;;;;;;10.30;3.08;;;;;;;20.07;89.98;98210.78;5111740;28;20198;-57
2023/09/22 04:55:35;;;;;;;5.32;3.10;;;;;;;20.20;91.16;98242.59;5111839;28;20579;-57
2023/09/22 04:58:02;;;;;;;5.38;2.60;;;;;;;20.11;90.63;98227.88;5111366;28;20646;-57
2023/09/22 05:00:27;;;;;;;8.25;2.47;;;;;;;20.29;91.41;98260.78;5111564;28;20207;-57
2023/09/22 05:02:53;;;;;;;8.10;3.10;;;;;;;20.04;90.07;98217.16;5111546;28;20273;-57
2023/09/22 05:05:19;;;;;;;4.35;2.63;;;;;;;20.20;90.46;98237.34;5111525;28;20185;-59
2023/09/22 05:07:45;;;;;;;5.15;3.53;;;;;;;20.07;93.80;98226.53;5111592;28;20186;-57
2023/09/22 05:10:11;;;;;;;5.15;2.80;;;;;;;20.24;91.18;98241.28;5048221;28;20193;-57
2023/09/22 05:12:37;;;;;;;15.30;3.80;;;;;;;20.13;90.03;98234.59;5048002;28;20203;-57
2023/09/22 05:15:04;;;;;;;4.30;2.88;;;;;;;20.30;88.57;98254.56;5047878;28;20604;-57
2023/09/22 05:17:30;;;;;;;7.60;2.90;;;;;;;20.39;89.72;98258.78;5048332;28;20194;-57
2023/09/22 05:19:55;;;;;;;6.68;2.90;;;;;;;20.38;90.69;98246.66;5048383;28;20718;-57
2023/09/22 05:22:21;;;;;;;5.75;2.55;;;;;;;20.40;90.52;98249.13;5048326;28;20310;-57
2023/09/22 05:24:47;;;;;;;6.13;2.95;;;;;;;20.54;89.69;98256.28;5048280;28;20730;-57
2023/09/22 05:27:13;;;;;;;10.25;2.65;;;;;;;20.44;89.77;98235.44;5048130;28;20185;-57
2023/09/22 05:29:38;;;;;;;4.85;3.03;;;;;;;20.63;89.20;98260.53;5048308;28;20200;-56
2023/09/22 05:32:05;;;;;;;4.40;2.33;;;;;;;20.60;88.57;98238.00;5008444;28;20210;-56
2023/09/22 05:34:30;;;;;;;3.55;2.90;;;;;;;20.78;88.58;98258.78;5008486;28;20208;-57
2023/09/22 05:36:55;;;;;;;7.70;2.60;;;;;;;20.61;89.40;98213.34;5008605;28;20185;-57
2023/09/22 05:39:21;;;;;;;9.88;3.60;;;;;;;20.91;88.12;98265.16;5008621;28;20740;-57
2023/09/22 05:41:47;;;;;;;4.50;3.00;;;;;;;20.93;87.98;98251.84;5008403;28;20182;-57
2023/09/22 05:44:13;;;;;;;4.85;2.90;;;;;;;20.89;87.95;98245.28;5008506;28;20246;-57
2023/09/22 05:46:38;;;;;;;9.15;2.97;;;;;;;20.85;86.86;98238.69;5014742;28;20218;-56
2023/09/22 05:49:05;;;;;;;5.50;2.80;;;;;;;20.99;86.70;98259.03;5068442;28;20180;-57
2023/09/22 05:51:32;;;;;;;5.28;2.75;;;;;;;21.01;86.47;98249.16;5068009;28;20330;-57
2023/09/22 05:53:57;;;;;;;6.57;2.60;;;;;;;21.14;86.63;98252.03;5067976;28;20191;-56
2023/09/22 05:56:22;;;;;;;6.65;2.92;;;;;;;21.23;86.35;98264.16;5068002;28;20566;-56
2023/09/22 05:58:48;;;;;;;11.68;3.00;;;;;;;21.27;86.26;98257.53;5067961;28;20191;-58
2023/09/22 06:01:14;;;;;;;8.80;2.78;;;;;;;21.12;86.25;98231.16;5068007;28;20597;-57
2023/09/22 06:03:41;;;;;;;4.35;2.53;;;;;;;21.19;85.87;98244.41;5062748;28;20212;-57
2023/09/22 06:06:08;;;;;;;9.45;3.40;;;;;;;21.34;85.01;98259.28;5067886;28;20732;-57
2023/09/22 06:08:36;;;;;;;6.05;3.15;;;;;;;21.33;85.50;98259.47;5067982;28;20279;-57
2023/09/22 06:11:02;;;;;;;7.82;3.17;;;;;;;21.40;85.40;98282.25;5067810;28;20180;-57
2023/09/22 06:13:27;;;;;;;4.47;2.95;;;;;;;21.63;84.04;98298.88;5067442;28;20206;-57
2023/09/22 06:15:53;;;;;;;7.10;2.72;;;;;;;21.55;83.70;98279.69;5067893;28;20204;-57
2023/09/22 06:18:22;;;;;;;5.78;2.60;;;;;;;21.43;83.91;98262.66;5068003;28;20254;-57
2023/09/22 06:20:48;;;;;;;6.65;2.80;;;;;;;21.52;83.94;98264.25;5068045;28;20181;-57
2023/09/22 06:23:13;;;;;;;6.95;3.13;;;;;;;21.85;83.17;98292.00;5067878;28;20626;-57
2023/09/22 06:25:39;;;;;;;8.80;3.13;;;;;;;21.93;82.62;98305.09;5070305;28;20169;-57
2023/09/22 06:28:07;;;;;;;8.50;3.40;;;;;;;21.99;81.76;98289.41;5071689;28;20267;-57
2023/09/22 06:30:34;;;;;;;6.00;3.40;;;;;;;22.12;80.66;98286.94;5072041;28;20268;-57
2023/09/22 06:33:01;;;;;;;6.20;2.80;;;;;;;22.18;79.63;98274.84;5071727;28;20567;-57
2023/09/22 06:35:26;;;;;;;8.80;3.00;;;;;;;22.28;79.47;98291.22;5107132;28;20193;-57
2023/09/22 06:37:53;;;;;;;7.40;3.22;;;;;;;22.37;78.65;98288.31;5114636;28;20265;-57
2023/09/22 06:40:19;;;;;;;6.20;3.35;;;;;;;22.57;78.46;98307.91;5114795;28;20175;-57
2023/09/22 06:42:45;;;;;;;6.35;3.00;;;;;;;22.40;78.65;98282.69;5114462;28;20683;-57
2023/09/22 06:45:16;;;;;;;5.85;3.38;;;;;;;22.52;79.16;98293.63;5114738;28;20174;-57
2023/09/22 06:47:42;;;;;;;7.50;3.63;;;;;;;22.57;79.29;98289.47;5114675;28;20270;-57
2023/09/22 06:50:08;;;;;;;7.88;3.55;;;;;;;22.85;77.18;98313.34;5114476;28;20215;-57
2023/09/22 06:52:43;;;;;;;7.15;3.25;;;;;;;22.80;77.05;98307.81;5114338;28;20171;-57
2023/09/22 06:55:11;;;;;;;17.92;4.40;;;;;;;22.75;77.95;98302.25;5114765;28;20201;-57
2023/09/22 06:57:40;;;;;;;10.85;3.78;;;;;;;22.96;77.85;98326.06;5114351;28;20223;-57
2023/09/22 07:00:15;;;;;;;7.60;4.00;;;;;;;23.10;78.97;98319.94;5114291;28;20194;-57
2023/09/22 07:02:40;;;;;;;7.38;4.10;;;;;;;23.12;80.28;98307.38;5114249;28;20311;-57
2023/09/22 07:05:06;;;;;;;6.50;3.88;;;;;;;23.13;79.99;98290.53;5114104;28;20348;-57
2023/09/22 07:07:32;;;;;;;8.63;4.28;;;;;;;23.29;80.04;98311.44;5113802;28;20203;-57
2023/09/22 07:09:57;;;;;;;6.72;3.95;;;;;;;23.50;80.14;98325.50;5114071;28;20638;-57
2023/09/22 07:12:23;;;;;;;4.90;4.10;;;;;;;23.48;79.19;98310.84;5113909;28;20243;-57
2023/09/22 07:14:48;;;;;;;8.57;3.83;;;;;;;23.46;79.08;98297.00;5113971;28;20672;-57
2023/09/22 07:17:14;;;;;;;5.03;3.78;;;;;;;23.51;78.29;98295.44;5114219;28;20539;-57
2023/09/22 07:19:39;;;;;;;6.30;4.15;;;;;;;23.73;77.46;98311.09;5113948;28;20304;-57
2023/09/22 07:22:05;;;;;;;6.80;4.20;;;;;;;23.82;76.93;98311.78;5113761;28;20540;-57
2023/09/22 07:24:31;;;;;;;8.00;4.43;;;;;;;24.06;76.06;98337.81;5113521;28;20211;-57
2023/09/22 07:26:56;;;;;;;5.95;4.15;;;;;;;24.05;75.88;98322.97;5113893;28;20183;-57
2023/09/22 07:29:22;;;;;;;6.78;4.13;;;;;;;24.02;74.25;98304.88;5113678;28;20210;-57
2023/09/22 07:31:47;;;;;;;7.28;4.07;;;;;;;24.26;74.72;98344.09;5113603;28;20179;-57
2023/09/22 07:34:13;;;;;;;10.82;4.28;;;;;;;24.34;75.35;98344.78;5113549;28;20259;-56
2023/09/22 07:36:38;;;;;;;7.20;4.28;;;;;;;24.41;74.77;98345.63;5112625;28;20266;-57
2023/09/22 07:39:04;;;;;;;7.13;3.92;;;;;;;24.26;74.16;98315.00;5113431;28;20175;-56
2023/09/22 07:41:30;;;;;;;9.00;4.50;;;;;;;24.45;73.18;98328.34;5113682;28;20175;-57
2023/09/22 07:43:55;;;;;;;10.05;3.80;;;;;;;24.52;72.99;98342.44;5113308;28;20199;-57
2023/09/22 07:46:22;;;;;;;5.97;3.80;;;;;;;24.36;72.77;98308.34;5113311;28;20633;-56
2023/09/22 07:48:49;;;;;;;8.55;4.00;;;;;;;24.40;73.45;98314.06;5112890;28;20182;-57
2023/09/22 07:51:14;;;;;;;5.07;4.35;;;;;;;24.51;73.38;98329.41;5113336;28;20171;-57
2023/09/22 07:53:40;;;;;;;6.72;4.00;;;;;;;24.46;73.20;98327.34;5113263;28;20285;-57
2023/09/22 07:56:05;;;;;;;7.22;4.45;;;;;;;24.49;73.17;98323.50;5113044;28;20171;-57
2023/09/22 07:58:31;;;;;;;7.60;4.10;;;;;;;24.62;72.92;98332.34;5112747;28;20178;-57
2023/09/22 08:00:58;;;;;;;13.38;8.95;;;;;;;24.77;73.14;98345.44;5112892;28;20182;-57
2023/09/22 08:03:24;;;;;;;10.60;4.05;;;;;;;24.93;70.80;98338.03;5112822;28;20210;-57
2023/09/22 08:05:53;;;;;;;6.90;4.47;;;;;;;24.75;70.82;98305.97;5112834;28;20330;-58
2023/09/22 08:08:18;;;;;;;8.05;4.55;;;;;;;24.82;70.64;98301.50;5112837;28;20189;-58
2023/09/22 08:10:44;;;;;;;9.07;4.05;;;;;;;25.01;70.06;98316.66;5113217;28;20171;-58
2023/09/22 08:13:09;;;;;;;5.22;4.68;;;;;;;25.13;70.14;98332.81;5112830;28;20658;-58
2023/09/22 08:15:37;;;;;;;7.85;4.60;;;;;;;25.02;69.67;98306.91;5112438;28;20215;-58
2023/09/22 08:18:05;;;;;;;6.15;4.47;;;;;;;25.12;69.25;98313.44;5112648;28;20179;-58
2023/09/22 08:20:32;;;;;;;6.20;4.00;;;;;;;25.18;68.82;98314.47;5049553;28;20188;-58
2023/09/22 08:22:57;;;;;;;9.13;3.97;;;;;;;25.20;68.31;98307.97;5049518;28;20189;-58
2023/09/22 08:25:23;;;;;;;8.18;4.13;;;;;;;25.36;67.66;98312.94;5049561;28;20177;-58
2023/09/22 08:27:48;;;;;;;9.98;4.50;;;;;;;25.60;67.54;98336.22;5049496;28;20257;-58
2023/09/22 08:30:15;;;;;;;7.28;4.45;;;;;;;25.62;67.81;98336.84;5049440;28;20229;-58
2023/09/22 08:32:44;;;;;;;5.65;4.13;;;;;;;25.50;66.91;98311.97;5029332;28;20181;-58
2023/09/22 08:35:15;;;;;;;10.13;4.63;;;;;;;25.50;66.68;98300.53;5029281;28;20189;-58
2023/09/22 08:37:42;;;;;;;6.25;3.50;;;;;;;25.63;67.02;98322.56;5029523;28;20190;-57
2023/09/22 08:40:15;;;;;;;6.25;4.32;;;;;;;25.31;66.88;98319.84;5029348;28;20197;-57
2023/09/22 08:42:45;;;;;;;9.88;4.50;;;;;;;25.48;67.28;98324.56;5029441;28;20209;-57
2023/09/22 08:45:11;;;;;;;7.72;4.03;;;;;;;25.57;66.80;98327.84;5029157;28;20707;-57
2023/09/22 08:47:40;;;;;;;8.25;4.07;;;;;;;25.44;66.42;98294.22;5029122;28;20193;-57
2023/09/22 08:50:14;;;;;;;7.45;4.30;;;;;;;25.57;66.42;98301.34;5029077;28;20253;-57
2023/09/22 08:52:41;;;;;;;8.98;4.55;;;;;;;25.69;65.62;98311.16;5088060;28;20194;-57
2023/09/22 08:55:08;;;;;;;7.20;4.60;;;;;;;25.87;65.37;98321.16;5089093;28;20271;-57
2023/09/22 08:57:34;;;;;;;8.02;4.80;;;;;;;26.00;64.63;98322.00;5089149;28;20210;-57
2023/09/22 09:00:00;;;;;;;10.00;4.43;;;;;;;26.15;62.54;98324.47;5089180;28;20187;-57
2023/09/22 09:02:25;;;;;;;11.98;4.72;;;;;;;26.04;62.42;98302.03;5089117;28;20171;-57
2023/09/22 09:04:51;;;;;;;7.93;4.70;;;;;;;26.19;63.14;98318.53;5111188;28;20604;-58
2023/09/22 09:07:18;;;;;;;6.78;5.18;;;;;;;26.14;63.11;98299.78;5111834;28;20540;-57
2023/09/22 09:09:47;;;;;;;6.68;4.72;;;;;;;26.28;62.20;98313.81;5111756;28;20190;-57
2023/09/22 09:12:13;;;;;;;10.18;5.03;;;;;;;26.32;62.92;98317.72;5068369;28;20195;-58
2023/09/22 09:14:43;;;;;;;6.40;4.28;;;;;;;26.28;62.48;98287.28;5048657;28;20185;-57
2023/09/22 09:17:21;;;;;;;9.35;4.47;;;;;;;26.39;61.15;98286.66;5048473;28;20193;-57
2023/09/22 09:19:54;;;;;;;5.32;3.83;;;;;;;26.34;60.57;98282.00;5048642;28;20192;-58
2023/09/22 09:22:20;;;;;;;9.13;4.38;;;;;;;26.58;60.45;98315.06;5048376;28;20197;-57
2023/09/22 09:24:45;;;;;;;8.80;4.60;;;;;;;26.59;60.45;98312.16;5048433;28;20274;-57
2023/09/22 09:27:18;;;;;;;7.93;4.53;;;;;;;26.54;59.85;98282.78;5048544;28;20675;-57
2023/09/22 09:29:47;;;;;;;6.95;4.10;;;;;;;26.51;59.97;98267.25;5028330;28;20650;-57
2023/09/22 09:32:30;;;;;;;8.02;4.18;;;;;;;26.75;59.00;98301.09;5028415;28;20297;-57
2023/09/22 09:34:56;;;;;;;8.98;4.63;;;;;;;26.59;59.33;98267.03;5048042;28;20283;-57
2023/09/22 09:37:23;;;;;;;5.57;4.63;;;;;;;26.72;58.94;98280.28;5048267;28;20181;-57
2023/09/22 09:39:49;;;;;;;9.23;4.03;;;;;;;26.90;58.95;98301.66;5028051;28;20186;-57
2023/09/22 09:42:18;;;;;;;7.00;4.20;;;;;;;26.86;59.05;98271.25;5028277;28;20653;-57
2023/09/22 09:44:49;;;;;;;8.55;4.57;;;;;;;26.90;58.85;98272.44;5030717;28;20221;-57
2023/09/22 09:47:24;;;;;;;9.73;4.40;;;;;;;27.03;58.50;98293.63;5048304;28;20181;-58
2023/09/22 09:49:53;;;;;;;9.55;3.88;;;;;;;27.02;58.29;98269.94;5048381;28;20189;-58
2023/09/22 09:52:44;;;;;;;6.93;3.90;;;;;;;27.12;58.37;98271.09;5048158;28;20233;-57
2023/09/22 09:55:14;;;;;;;7.20;3.78;;;;;;;27.34;57.71;98285.72;5048185;28;20288;-57
2023/09/22 09:57:44;;;;;;;9.00;3.75;;;;;;;27.38;56.17;98283.44;5048153;28;20212;-58
2023/09/22 10:00:13;;;;;;;9.18;4.75;;;;;;;27.24;56.13;98240.19;5049689;28;20215;-57
2023/09/22 10:02:43;;;;;;;8.43;4.20;;;;;;;27.36;56.16;98250.97;5052209;28;20240;-58
2023/09/22 10:05:20;;;;;;;5.63;3.63;;;;;;;27.41;55.98;98267.09;5052015;28;20320;-57
2023/09/22 10:07:48;;;;;;;7.15;3.72;;;;;;;27.38;55.28;98224.97;5067058;28;20663;-57
2023/09/22 10:10:17;;;;;;;7.50;3.88;;;;;;;27.63;54.98;98258.53;5083503;28;20720;-57
2023/09/22 10:12:43;;;;;;;7.18;4.43;;;;;;;27.72;54.84;98265.22;5115359;28;20270;-58
2023/09/22 10:15:10;;;;;;;8.68;4.50;;;;;;;27.76;54.11;98253.09;5115063;28;20187;-58
2023/09/22 10:17:36;;;;;;;8.75;4.13;;;;;;;27.94;53.93;98258.50;5114834;28;20528;-58
2023/09/22 10:20:10;;;;;;;8.52;4.43;;;;;;;27.89;53.95;98220.31;5115124;28;20202;-57
2023/09/22 10:22:40;;;;;;;8.15;3.90;;;;;;;28.13;53.98;98235.41;5115002;28;20202;-57
2023/09/22 10:25:13;;;;;;;4.45;3.50;;;;;;;28.32;53.49;98243.19;5071641;28;20208;-58
2023/09/22 10:28:02;;;;;;;11.30;4.30;;;;;;;28.39;52.97;98241.31;5071845;28;20735;-58
2023/09/22 10:30:45;;;;;;;9.23;3.65;;;;;;;28.54;52.28;98240.94;5071782;28;20184;-58
2023/09/22 10:33:23;;;;;;;7.10;3.85;;;;;;;28.61;52.10;98242.50;5071657;28;20173;-58
2023/09/22 10:35:49;;;;;;;7.15;3.58;;;;;;;28.71;51.94;98237.47;5071666;28;20230;-58
2023/09/22 10:38:15;;;;;;;6.72;3.85;;;;;;;28.91;51.73;98224.69;5071499;28;20594;-57
2023/09/22 10:40:59;;;;;;;7.32;3.60;;;;;;;29.21;50.76;98238.84;5071521;28;20195;-57
2023/09/22 10:43:24;;;;;;;5.35;3.50;;;;;;;29.38;50.74;98228.38;5071456;28;20247;-57
2023/09/22 10:45:51;;;;;;;7.28;3.33;;;;;;;29.40;50.81;98205.78;5071464;28;20698;-57
2023/09/22 10:48:18;;;;;;;4.75;3.33;;;;;;;29.42;49.38;98202.84;5071373;28;20176;-57
2023/09/22 10:50:49;;;;;;;9.48;3.92;;;;;;;29.37;49.74;98208.06;5071357;28;20192;-57
2023/09/22 10:53:15;;;;;;;3.83;3.42;;;;;;;29.40;50.10;98199.63;5071574;28;20895;-57
2023/09/22 10:55:42;;;;;;;5.78;3.78;;;;;;;29.56;48.76;98189.09;5085415;28;20197;-57
2023/09/22 10:58:22;;;;;;;10.80;3.63;;;;;;;29.92;49.05;98209.44;5114252;28;20163;-57
2023/09/22 11:00:57;;;;;;;5.63;3.63;;;;;;;30.03;47.92;98208.63;5113944;28;20559;-57
2023/09/22 11:03:23;;;;;;;6.78;3.55;;;;;;;30.04;48.24;98192.38;5114106;28;20312;-57
2023/09/22 11:06:00;;;;;;;7.05;3.17;;;;;;;30.03;47.95;98171.25;5114124;28;20186;-57
2023/09/22 11:08:26;;;;;;;7.05;3.85;;;;;;;30.30;48.21;98196.44;5114064;28;20178;-57
2023/09/22 11:10:53;;;;;;;10.13;3.35;;;;;;;30.23;47.76;98172.53;5113217;28;20175;-58
2023/09/22 11:13:19;;;;;;;9.43;4.28;;;;;;;30.53;46.77;98193.69;5113573;28;20190;-58
2023/09/22 11:16:01;;;;;;;6.65;3.50;;;;;;;30.65;46.90;98192.66;5050744;28;20181;-58
2023/09/22 11:18:32;;;;;;;4.70;3.58;;;;;;;30.39;47.46;98157.63;5051028;28;20227;-57
2023/09/22 11:21:08;;;;;;;7.78;3.38;;;;;;;30.66;47.58;98186.25;5050791;28;20643;-58
2023/09/22 11:23:36;;;;;;;6.10;3.40;;;;;;;30.84;47.18;98188.75;5050781;28;20204;-58
2023/09/22 11:26:10;;;;;;;10.80;3.72;;;;;;;30.74;47.10;98153.84;5050793;28;20181;-58
2023/09/22 11:28:43;;;;;;;8.50;3.40;;;;;;;31.03;47.43;98171.47;5050523;28;20185;-58
2023/09/22 11:31:14;;;;;;;5.38;3.47;;;;;;;31.02;45.59;98137.75;5050676;28;20173;-58